createdAt,value
2023-03-17T00:02:41.609Z,100139.96
2023-03-17T00:06:43.561Z,100143.45
2023-03-17T00:10:41.676Z,100143.91
2023-03-17T00:14:39.518Z,100146.19
2023-03-17T00:18:38.711Z,100147.86
2023-03-17T00:22:36.487Z,100144.04
2023-03-17T00:26:34.571Z,100144.86
2023-03-17T00:30:32.855Z,100142.23
2023-03-17T00:34:33.567Z,100145.41
2023-03-17T00:38:33.513Z,100144.40
2023-03-17T00:42:31.676Z,100146.05
2023-03-17T00:46:33.654Z,100144.28
2023-03-17T00:50:37.556Z,100147.05
2023-03-17T00:54:35.525Z,100149.44
2023-03-17T00:58:46.503Z,100148.61
2023-03-17T01:02:45.441Z,100150.16
2023-03-17T01:06:43.538Z,100152.81
2023-03-17T01:10:43.528Z,100151.77
2023-03-17T01:14:43.484Z,100150.71
2023-03-17T01:18:41.494Z,100157.20
2023-03-17T01:22:39.498Z,100158.41
2023-03-17T01:26:37.431Z,100159.13
2023-03-17T01:30:35.572Z,100153.18
2023-03-17T01:34:35.397Z,100148.46
2023-03-17T01:38:33.404Z,100142.38
2023-03-17T01:42:31.437Z,100140.02
2023-03-17T01:46:44.492Z,100138.22
2023-03-17T01:50:42.575Z,100134.51
2023-03-17T01:54:48.417Z,100134.49
2023-03-17T01:58:47.352Z,100131.92
2023-03-17T02:02:49.526Z,100128.85
2023-03-17T02:06:57.457Z,100126.64
2023-03-17T02:10:57.372Z,100125.00
2023-03-17T02:14:55.413Z,100126.64
2023-03-17T02:18:54.379Z,100126.98
2023-03-17T02:22:53.484Z,100129.56
2023-03-17T02:26:52.377Z,100133.20
2023-03-17T02:30:51.478Z,100133.42
2023-03-17T02:34:49.335Z,100134.37
2023-03-17T02:38:47.298Z,100138.21
2023-03-17T02:42:46.325Z,100139.58
2023-03-17T02:46:44.297Z,100143.19
2023-03-17T02:50:43.390Z,100148.48
2023-03-17T02:54:41.393Z,100150.66
2023-03-17T02:58:39.339Z,100149.05
2023-03-17T03:02:37.356Z,100153.05
2023-03-17T03:06:35.293Z,100155.17
2023-03-17T03:10:33.261Z,100155.64
2023-03-17T03:14:31.367Z,100157.91
2023-03-17T03:18:22.464Z,100162.59
2023-03-17T03:22:20.367Z,100165.78
2023-03-17T03:26:18.261Z,100172.36
2023-03-17T03:30:16.306Z,100175.23
2023-03-17T03:34:14.277Z,100171.64
2023-03-17T03:38:12.311Z,100175.30
2023-03-17T03:42:10.333Z,100177.45
2023-03-17T03:46:08.443Z,100182.98
2023-03-17T03:50:06.294Z,100186.39
2023-03-17T03:54:04.399Z,100185.54
2023-03-17T03:58:02.250Z,100184.73
2023-03-17T04:02:00.330Z,100186.37
2023-03-17T04:05:58.180Z,100187.83
2023-03-17T04:09:56.285Z,100188.30
2023-03-17T04:13:55.283Z,100190.64
2023-03-17T04:17:55.330Z,100193.14
2023-03-17T04:21:47.460Z,100187.65
2023-03-17T04:25:45.237Z,100191.74
2023-03-17T04:29:43.153Z,100193.69
2023-03-17T04:33:41.285Z,100198.42
2023-03-17T04:37:39.163Z,100204.47
2023-03-17T04:41:37.146Z,100209.73
2023-03-17T04:45:35.175Z,100212.55
2023-03-17T04:49:33.201Z,100215.43
2023-03-17T04:53:31.182Z,100223.14
2023-03-17T04:57:29.273Z,100225.18
2023-03-17T05:01:27.174Z,100225.70
2023-03-17T05:05:26.146Z,100239.27
2023-03-17T05:09:25.144Z,100234.88
2023-03-17T05:13:23.149Z,100235.36
2023-03-17T05:17:21.104Z,100237.36
2023-03-17T05:21:21.089Z,100229.44
2023-03-17T05:25:19.082Z,100236.08
2023-03-17T05:29:17.191Z,100237.77
2023-03-17T05:33:15.074Z,100235.50
2023-03-17T05:37:14.301Z,100237.30
2023-03-17T05:41:15.033Z,100235.95
2023-03-17T05:45:13.278Z,100242.07
2023-03-17T05:49:11.176Z,100241.55
2023-03-17T05:53:09.203Z,100240.62
2023-03-17T05:57:07.049Z,100241.22
2023-03-17T06:01:05.123Z,100241.45
2023-03-17T06:05:03.202Z,100245.58
2023-03-17T06:09:01.056Z,100245.61
2023-03-17T06:12:59.064Z,100251.39
2023-03-17T06:16:57.039Z,100246.09
2023-03-17T06:20:55.010Z,100242.50
2023-03-17T06:24:53.469Z,100240.46
2023-03-17T06:28:52.000Z,100242.50
2023-03-17T06:32:54.004Z,100240.34
2023-03-17T06:36:52.050Z,100243.86
2023-03-17T06:40:49.991Z,100245.20
2023-03-17T06:44:47.925Z,100245.95
2023-03-17T06:48:47.953Z,100257.73
2023-03-17T06:52:47.934Z,100259.04
2023-03-17T06:56:45.943Z,100258.23
2023-03-17T07:00:23.996Z,100255.61
2023-03-17T07:03:48.232Z,100262.02
2023-03-17T07:07:12.217Z,100269.89
2023-03-17T07:10:37.409Z,100273.96
2023-03-17T07:14:01.512Z,100278.08
2023-03-17T07:17:25.627Z,100283.44
2023-03-17T07:20:49.602Z,100292.31
2023-03-17T07:24:13.457Z,100292.27
2023-03-17T07:27:37.922Z,100290.41
2023-03-17T07:31:03.023Z,100292.64
2023-03-17T07:34:27.594Z,100287.74
2023-03-17T07:37:51.646Z,100284.66
2023-03-17T07:41:15.618Z,100293.08
2023-03-17T07:44:41.641Z,100294.31
2023-03-17T07:48:07.463Z,100299.95
2023-03-17T07:51:31.450Z,100296.65
2023-03-17T07:54:56.052Z,100302.35
2023-03-17T07:58:20.329Z,100303.92
2023-03-17T08:01:45.103Z,100298.29
2023-03-17T08:05:10.651Z,100298.98
2023-03-17T08:08:34.480Z,100295.96
2023-03-17T08:11:58.323Z,100300.89
2023-03-17T08:15:22.747Z,100306.45
2023-03-17T08:18:48.020Z,100297.13
2023-03-17T08:22:13.437Z,100293.89
2023-03-17T08:25:37.463Z,100292.60
2023-03-17T08:29:01.444Z,100295.11
2023-03-17T08:32:25.389Z,100296.14
2023-03-17T08:35:49.788Z,100294.91
2023-03-17T08:39:14.083Z,100295.13
2023-03-17T08:42:39.475Z,100295.49
2023-03-17T08:46:09.932Z,100292.60
2023-03-17T08:49:36.203Z,100292.90
2023-03-17T08:53:00.127Z,100291.33
2023-03-17T08:56:24.212Z,100289.06
2023-03-17T08:59:48.720Z,100290.85
2023-03-17T09:03:12.526Z,100295.79
2023-03-17T09:06:36.564Z,100296.33
2023-03-17T09:10:05.187Z,100295.55
2023-03-17T09:13:29.431Z,100291.65
2023-03-17T09:16:53.810Z,100294.98
2023-03-17T09:20:17.985Z,100292.46
2023-03-17T09:23:42.260Z,100290.97
2023-03-17T09:27:06.487Z,100288.80
2023-03-17T09:30:30.889Z,100287.14
2023-03-17T09:33:54.883Z,100291.23
2023-03-17T09:37:18.780Z,100289.77
2023-03-17T09:40:54.172Z,100283.33
2023-03-17T09:44:56.567Z,100275.95
2023-03-17T09:49:00.956Z,100276.52
2023-03-17T09:52:30.379Z,100269.20
2023-03-17T09:55:59.914Z,100265.45
2023-03-17T09:59:53.873Z,100257.52
2023-03-17T10:03:17.741Z,100259.32
2023-03-17T10:06:46.939Z,100263.98
2023-03-17T10:10:51.438Z,100265.33
2023-03-17T10:14:46.237Z,100260.52
2023-03-17T10:18:16.173Z,100259.12
2023-03-17T10:22:05.168Z,100259.65
2023-03-17T10:25:33.063Z,100259.75
2023-03-17T10:28:57.505Z,100259.19
2023-03-17T10:32:21.724Z,100265.34
2023-03-17T10:35:45.810Z,100263.84
2023-03-17T10:39:14.626Z,100259.85
2023-03-17T10:42:56.462Z,100253.46
2023-03-17T10:46:30.031Z,100254.58
2023-03-17T10:49:53.967Z,100252.75
2023-03-17T10:53:28.518Z,100248.61
2023-03-17T10:57:02.572Z,100244.73
2023-03-17T11:00:30.568Z,100242.08
2023-03-17T11:03:56.387Z,100240.39
2023-03-17T11:07:31.551Z,100242.29
2023-03-17T11:10:57.728Z,100239.70
2023-03-17T11:14:28.411Z,100234.88
2023-03-17T11:18:17.139Z,100226.59
2023-03-17T11:22:05.146Z,100219.36
2023-03-17T11:25:30.302Z,100215.75
2023-03-17T11:29:22.505Z,100216.92
2023-03-17T11:33:08.110Z,100207.59
2023-03-17T11:37:07.266Z,100203.36
2023-03-17T11:41:09.141Z,100197.45
2023-03-17T11:44:51.962Z,100186.75
2023-03-17T11:48:44.779Z,100181.95
2023-03-17T11:52:22.131Z,100177.94
2023-03-17T11:55:58.833Z,100173.67
2023-03-17T12:00:04.538Z,100171.58
2023-03-17T12:03:55.401Z,100165.89
2023-03-17T12:07:24.834Z,100164.33
2023-03-17T12:10:55.638Z,100162.84
2023-03-17T12:14:34.969Z,100160.32
2023-03-17T12:18:07.050Z,100156.18
2023-03-17T12:21:45.732Z,100151.96
2023-03-17T12:25:35.173Z,100151.05
2023-03-17T12:29:01.519Z,100143.56
2023-03-17T12:32:50.958Z,100137.83
2023-03-17T12:36:17.251Z,100136.23
2023-03-17T12:39:50.299Z,100133.27
2023-03-17T12:43:37.123Z,100124.89
2023-03-17T12:47:26.681Z,100119.52
2023-03-17T12:51:12.573Z,100122.86
2023-03-17T12:54:39.516Z,100116.02
2023-03-17T12:58:07.797Z,100112.82
2023-03-17T13:01:46.488Z,100114.17
2023-03-17T13:05:16.115Z,100119.61
2023-03-17T13:08:43.775Z,100120.08
2023-03-17T13:12:08.866Z,100116.38
2023-03-17T13:15:36.222Z,100112.01
2023-03-17T13:19:19.367Z,100107.42
2023-03-17T13:23:03.465Z,100101.77
2023-03-17T13:27:01.858Z,100096.16
2023-03-17T13:30:26.327Z,100093.61
2023-03-17T13:33:54.084Z,100081.42
2023-03-17T13:37:41.747Z,100081.17
2023-03-17T13:41:27.456Z,100076.98
2023-03-17T13:45:29.427Z,100074.20
2023-03-17T13:48:56.359Z,100079.34
2023-03-17T13:52:50.768Z,100075.35
2023-03-17T13:56:19.957Z,100071.05
2023-03-17T13:59:58.787Z,100064.39
2023-03-17T14:03:37.658Z,100066.50
2023-03-17T14:07:10.835Z,100066.23
2023-03-17T14:10:36.398Z,100068.28
2023-03-17T14:14:39.165Z,100066.23
2023-03-17T14:18:16.139Z,100066.21
2023-03-17T14:21:40.845Z,100058.70
2023-03-17T14:25:09.629Z,100053.28
2023-03-17T14:28:38.619Z,100045.30
2023-03-17T14:32:27.513Z,100047.84
2023-03-17T14:36:27.356Z,100040.92
2023-03-17T14:40:39.423Z,100040.16
2023-03-17T14:44:37.393Z,100039.38
2023-03-17T14:48:42.421Z,100034.25
2023-03-17T14:52:43.382Z,100037.33
2023-03-17T14:56:53.383Z,100033.26
2023-03-17T15:00:57.387Z,100028.30
2023-03-17T15:05:08.349Z,100026.21
2023-03-17T15:09:07.355Z,100019.77
2023-03-17T15:13:15.571Z,100025.82
2023-03-17T15:17:16.337Z,100019.54
2023-03-17T15:21:14.334Z,100016.35
2023-03-17T15:25:17.345Z,100015.40
2023-03-17T15:29:15.374Z,100014.58
2023-03-17T15:33:16.314Z,100009.04
2023-03-17T15:37:14.398Z,100003.29
2023-03-17T15:41:12.381Z,100005.92
2023-03-17T15:45:10.461Z,100001.92
2023-03-17T15:49:08.338Z,99996.67
2023-03-17T15:53:06.324Z,99993.04
2023-03-17T15:57:04.285Z,99993.61
2023-03-17T16:01:07.356Z,99997.15
2023-03-17T16:05:05.265Z,99995.14
2023-03-17T16:09:04.335Z,100007.55
2023-03-17T16:13:03.291Z,100012.77
2023-03-17T16:17:02.372Z,100009.78
2023-03-17T16:21:05.244Z,100013.11
2023-03-17T16:25:03.347Z,100016.04
2023-03-17T16:29:01.353Z,100017.78
2023-03-17T16:33:00.489Z,100014.86
2023-03-17T16:36:58.208Z,100017.95
2023-03-17T16:40:57.318Z,100017.48
2023-03-17T16:44:57.343Z,100010.38
2023-03-17T16:48:56.351Z,100016.02
2023-03-17T16:52:55.256Z,100021.30
2023-03-17T16:56:55.333Z,100025.11
2023-03-17T17:00:53.449Z,100036.71
2023-03-17T17:04:51.248Z,100025.86
2023-03-17T17:08:49.197Z,100033.34
2023-03-17T17:12:47.210Z,100038.73
2023-03-17T17:16:50.307Z,100046.23
2023-03-17T17:20:52.277Z,100055.02
2023-03-17T17:24:50.350Z,100042.00
2023-03-17T17:28:49.250Z,100036.27
2023-03-17T17:32:48.263Z,100045.07
2023-03-17T17:36:46.328Z,100046.10
2023-03-17T17:40:44.161Z,100051.73
2023-03-17T17:44:42.181Z,100053.83
2023-03-17T17:48:41.174Z,100059.59
2023-03-17T17:52:39.268Z,100061.08
2023-03-17T17:56:37.249Z,100066.96
2023-03-17T18:00:35.185Z,100067.02
2023-03-17T18:04:33.307Z,100065.32
2023-03-17T18:08:31.605Z,100069.06
2023-03-17T18:12:29.103Z,100063.29
2023-03-17T18:16:31.356Z,100058.76
2023-03-17T18:20:31.448Z,100063.59
2023-03-17T18:24:31.115Z,100066.23
2023-03-17T18:28:29.264Z,100067.94
2023-03-17T18:32:30.540Z,100069.71
2023-03-17T18:36:28.191Z,100066.34
2023-03-17T18:40:26.287Z,100066.04
2023-03-17T18:44:25.179Z,100065.27
2023-03-17T18:48:23.067Z,100063.80
2023-03-17T18:52:22.093Z,100062.02
2023-03-17T18:56:20.113Z,100065.52
2023-03-17T19:00:19.141Z,100061.38
2023-03-17T19:04:17.083Z,100065.83
2023-03-17T19:08:18.020Z,100064.80
2023-03-17T19:12:16.027Z,100057.19
2023-03-17T19:16:13.985Z,100056.14
2023-03-17T19:20:12.086Z,100059.61
2023-03-17T19:24:15.015Z,100066.70
2023-03-17T19:28:13.172Z,100071.13
2023-03-17T19:32:13.011Z,100070.88
2023-03-17T19:36:12.120Z,100065.05
2023-03-17T19:40:09.992Z,100061.69
2023-03-17T19:44:08.422Z,100064.54
2023-03-17T19:48:05.963Z,100061.95
2023-03-17T19:52:04.998Z,100061.27
2023-03-17T19:56:03.024Z,100068.19
2023-03-17T20:00:02.005Z,100072.95
2023-03-17T20:04:01.085Z,100072.30
2023-03-17T20:07:58.974Z,100073.11
2023-03-17T20:11:58.012Z,100077.45
2023-03-17T20:15:56.932Z,100076.31
2023-03-17T20:19:54.918Z,100074.57
2023-03-17T20:23:53.019Z,100076.84
2023-03-17T20:27:58.940Z,100076.08
2023-03-17T20:31:57.996Z,100081.23
2023-03-17T20:36:00.969Z,100082.98
2023-03-17T20:40:00.931Z,100080.70
2023-03-17T20:43:59.925Z,100068.98
2023-03-17T20:47:58.280Z,100058.06
2023-03-17T20:51:56.955Z,100052.80
2023-03-17T20:55:56.977Z,100046.48
2023-03-17T20:59:57.901Z,100046.64
2023-03-17T21:03:58.979Z,100045.80
2023-03-17T21:07:59.933Z,100043.25
2023-03-17T21:11:57.998Z,100034.86
2023-03-17T21:16:01.964Z,100028.30
2023-03-17T21:20:02.904Z,100027.09
2023-03-17T21:24:03.775Z,100022.23
2023-03-17T21:28:01.918Z,100017.21
2023-03-17T21:32:04.892Z,100023.48
2023-03-17T21:36:08.265Z,100025.11
2023-03-17T21:40:06.847Z,100015.06
2023-03-17T21:44:04.983Z,100018.33
2023-03-17T21:48:02.803Z,100018.56
2023-03-17T21:52:07.907Z,100025.02
2023-03-17T21:56:07.791Z,100025.73
2023-03-17T22:00:05.836Z,100022.98
2023-03-17T22:04:04.806Z,100017.77
2023-03-17T22:08:03.001Z,100016.58
2023-03-17T22:12:00.880Z,100009.20
2023-03-17T22:17:05.813Z,100009.62
2023-03-17T22:21:07.771Z,100009.54
2023-03-17T22:25:06.840Z,100011.58
2023-03-17T22:29:06.804Z,100013.40
2023-03-17T22:33:04.879Z,100021.61
2023-03-17T22:37:02.785Z,100027.55
2023-03-17T22:41:00.859Z,100030.54
2023-03-17T22:45:01.204Z,100024.48
2023-03-17T22:48:59.900Z,100019.23
2023-03-17T22:52:57.771Z,100010.95
2023-03-17T22:56:55.789Z,100008.80
2023-03-17T23:00:54.805Z,100008.55
2023-03-17T23:04:52.744Z,100018.21
2023-03-17T23:08:52.794Z,100010.18
2023-03-17T23:12:50.845Z,100008.86
2023-03-17T23:16:48.799Z,100008.16
2023-03-17T23:20:47.811Z,100006.67
2023-03-17T23:24:45.805Z,100005.41
2023-03-17T23:28:43.760Z,100002.64
2023-03-17T23:32:42.869Z,100005.69
2023-03-17T23:36:40.735Z,100013.56
2023-03-17T23:40:39.771Z,100009.90
2023-03-17T23:44:37.743Z,100001.67
2023-03-17T23:48:35.711Z,99996.60
2023-03-17T23:52:34.735Z,99990.93
2023-03-17T23:56:32.690Z,99984.72
